Time;durP1;ratioP1;P1;durP2;ratioP2;P2;SDS_P1;SDS_P2;PMS_P1;PMS_P2;Temp;Humidity;BMP_temperature;BMP_pressure;BME280_temperature;BME280_humidity;BME280_pressure;Samples;Min_cycle;Max_cycle;Signal;HPM_P1;HPM_P2
2022/11/02 00:01:43;;;;;;;;;1.67;1.00;;;;;15.61;65.40;101522.38;5075375;27;45481;-65
2022/11/02 00:04:09;;;;;;;;;2.00;1.00;;;;;15.60;65.47;101522.38;5075866;28;45472;-63
2022/11/02 00:06:35;;;;;;;;;1.67;0.33;;;;;15.58;65.34;101525.00;5078438;27;45734;-61
2022/11/02 00:09:01;;;;;;;;;4.00;1.00;;;;;15.56;65.06;101517.97;5061356;28;45479;-60
2022/11/02 00:11:27;;;;;;;;;2.67;1.33;;;;;15.56;65.32;101523.25;5059728;27;47594;-61
2022/11/02 00:13:52;;;;;;;;;2.00;2.00;;;;;15.39;65.76;101511.03;5056538;28;45524;-62
2022/11/02 00:16:20;;;;;;;;;2.00;0.67;;;;;15.51;65.14;101525.06;5074620;28;45374;-63
2022/11/02 00:18:50;;;;;;;;;1.00;1.00;;;;;15.42;65.25;101513.69;5078006;28;45291;-62
2022/11/02 00:21:17;;;;;;;;;1.00;1.00;;;;;15.44;65.48;101529.50;5079148;27;45381;-62
2022/11/02 00:23:47;;;;;;;;;3.00;0.67;;;;;15.34;65.15;101533.06;5060382;28;45461;-62
2022/11/02 00:26:13;;;;;;;;;0.00;0.00;;;;;15.36;65.57;101536.59;5075899;27;45482;-61
2022/11/02 00:28:39;;;;;;;;;1.00;1.00;;;;;15.30;65.31;101532.19;5056448;28;45741;-62
2022/11/02 00:31:04;;;;;;;;;2.00;2.00;;;;;15.34;64.91;101533.06;5074198;28;46474;-61
2022/11/02 00:33:30;;;;;;;;;1.33;0.67;;;;;15.36;64.84;101548.00;5076355;28;45748;-62
2022/11/02 00:35:56;;;;;;;;;4.67;0.00;;;;;15.29;65.05;101542.78;5074997;28;45540;-61
2022/11/02 00:38:21;;;;;;;;;1.00;0.67;;;;;15.25;64.96;101540.13;5074766;28;45575;-62
2022/11/02 00:40:47;;;;;;;;;2.00;2.00;;;;;15.26;64.63;101541.03;5074305;28;46008;-61
2022/11/02 00:43:12;;;;;;;;;4.00;0.33;;;;;15.28;64.05;101552.47;5074007;28;45558;-60
2022/11/02 00:45:38;;;;;;;;;0.00;0.00;;;;;15.27;64.46;101556.84;5077104;28;45605;-61
2022/11/02 00:48:04;;;;;;;;;4.00;1.00;;;;;15.22;64.14;101549.84;5075645;28;45485;-63
2022/11/02 00:50:30;;;;;;;;;1.67;1.00;;;;;15.24;63.57;101556.88;5071821;28;45646;-63
2022/11/02 00:52:56;;;;;;;;;3.33;1.00;;;;;15.21;63.70;101569.19;5074308;27;45790;-63
2022/11/02 00:55:22;;;;;;;;;1.00;1.00;;;;;15.21;63.40;101564.81;5074816;27;45382;-61
2022/11/02 00:57:48;;;;;;;;;1.67;1.00;;;;;15.10;64.22;101569.22;5072920;28;45430;-61
2022/11/02 01:00:15;;;;;;;;;3.67;1.00;;;;;15.04;64.00;101566.59;5076409;28;45596;-61
2022/11/02 01:02:41;;;;;;;;;1.00;0.33;;;;;15.04;63.80;101574.50;5059576;28;45298;-61
2022/11/02 01:05:09;;;;;;;;;1.67;1.00;;;;;15.05;63.78;101578.94;5075376;28;45544;-62
2022/11/02 01:07:36;;;;;;;;;0.00;0.00;;;;;14.99;63.54;101577.16;5074816;28;45502;-59
2022/11/02 01:10:03;;;;;;;;;2.00;1.00;;;;;14.96;63.72;101565.75;5069113;28;45798;-61
2022/11/02 01:12:29;;;;;;;;;3.33;0.00;;;;;15.07;64.01;101585.09;5074615;28;45658;-60
2022/11/02 01:14:54;;;;;;;;;2.67;0.00;;;;;14.95;64.01;101577.19;5056168;28;45353;-61
2022/11/02 01:17:20;;;;;;;;;1.00;1.00;;;;;15.05;63.23;101597.41;5077347;28;45728;-61
2022/11/02 01:19:45;;;;;;;;;2.67;1.00;;;;;15.02;63.73;101579.81;5074458;27;46436;-61
2022/11/02 01:22:11;;;;;;;;;1.00;1.00;;;;;15.06;63.74;101586.81;5074208;27;45280;-62
2022/11/02 01:24:37;;;;;;;;;1.67;0.33;;;;;15.04;63.39;101582.44;5075528;27;45493;-62
2022/11/02 01:27:02;;;;;;;;;0.67;0.67;;;;;15.05;63.56;101587.72;5057604;28;45319;-61
2022/11/02 01:29:28;;;;;;;;;4.00;0.67;;;;;15.06;63.75;101596.50;5074776;28;45523;-61
2022/11/02 01:31:54;;;;;;;;;3.00;1.00;;;;;15.06;63.56;101585.94;5076988;28;45409;-64
2022/11/02 01:34:20;;;;;;;;;1.00;0.00;;;;;15.04;63.66;101592.97;5078383;28;45533;-61
2022/11/02 01:36:46;;;;;;;;;0.67;0.67;;;;;15.00;64.04;101596.53;5074038;28;45529;-62
2022/11/02 01:39:13;;;;;;;;;3.33;0.00;;;;;15.00;63.51;101601.81;5072345;28;46187;-61
2022/11/02 01:41:39;;;;;;;;;0.00;0.00;;;;;15.05;63.38;101606.19;5073401;27;45539;-61
2022/11/02 01:44:24;;;;;;;;;2.00;0.00;;;;;15.04;63.21;101608.81;5055319;28;45448;-61
2022/11/02 01:46:54;;;;;;;;;0.00;0.00;;;;;15.04;63.77;101606.16;5050633;27;45391;-61
2022/11/02 01:49:21;;;;;;;;;2.67;0.00;;;;;14.98;63.29;101608.84;5077873;28;46875;-60
2022/11/02 01:52:16;;;;;;;;;0.67;0.00;;;;;14.93;63.19;101610.63;5076454;28;45486;-63
2022/11/02 01:54:51;;;;;;;;;0.00;0.00;;;;;14.93;63.73;101615.91;5055924;28;45552;-61
2022/11/02 01:57:20;;;;;;;;;1.00;1.00;;;;;14.87;64.04;101613.25;5073809;28;45500;-61
2022/11/02 02:00:14;;;;;;;;;2.33;1.00;;;;;14.89;63.86;101624.69;5073578;28;45973;-61
2022/11/02 02:02:54;;;;;;;;;4.00;1.00;;;;;14.79;64.19;101629.09;5056255;28;45450;-61
2022/11/02 02:05:23;;;;;;;;;1.33;1.00;;;;;14.69;64.40;101624.69;5067448;28;45540;-62
2022/11/02 02:07:49;;;;;;;;;0.33;0.33;;;;;14.78;64.13;101649.31;5057987;28;45557;-60
2022/11/02 02:10:16;;;;;;;;;3.00;1.00;;;;;14.77;64.36;101644.91;5058589;28;46435;-60
2022/11/02 02:12:42;;;;;;;;;3.00;1.00;;;;;14.71;64.69;101651.94;5042625;28;45538;-62
2022/11/02 02:15:09;;;;;;;;;1.33;0.67;;;;;14.67;64.60;101640.53;5072732;28;45408;-60
2022/11/02 02:17:46;;;;;;;;;2.33;0.00;;;;;14.71;64.10;101638.75;5076592;27;45751;-60
2022/11/02 02:20:37;;;;;;;;;3.67;1.00;;;;;14.64;64.41;101624.72;5077796;28;45614;-64
2022/11/02 02:23:37;;;;;;;;;1.67;0.67;;;;;14.73;64.55;101651.06;5078019;28;45280;-60
2022/11/02 02:26:19;;;;;;;;;3.33;0.00;;;;;14.66;64.83;101654.56;5065137;28;45583;-63
2022/11/02 02:28:54;;;;;;;;;1.67;1.00;;;;;14.70;64.49;101658.97;5073837;28;45529;-62
2022/11/02 02:31:49;;;;;;;;;2.00;0.67;;;;;14.65;64.32;101657.22;5059730;28;45705;-62
2022/11/02 02:34:44;;;;;;;;;3.00;1.00;;;;;14.64;64.13;101643.19;5075054;28;45430;-63
2022/11/02 02:37:18;;;;;;;;;3.00;0.00;;;;;14.71;64.19;101663.41;5069309;28;45311;-65
2022/11/02 02:39:58;;;;;;;;;1.00;1.00;;;;;14.72;64.30;101665.13;5073411;27;45603;-64
2022/11/02 02:42:39;;;;;;;;;2.00;1.00;;;;;14.68;64.40;101668.66;5072632;28;46563;-65
2022/11/02 02:45:17;;;;;;;;;2.00;1.00;;;;;14.61;64.22;101667.75;5073174;27;45433;-62
2022/11/02 02:48:05;;;;;;;;;1.00;1.00;;;;;14.62;64.49;101666.03;5077521;28;45350;-63
2022/11/02 02:50:46;;;;;;;;;1.33;1.00;;;;;14.55;63.70;101649.31;5077081;28;45326;-65
2022/11/02 02:53:15;;;;;;;;;2.00;1.00;;;;;14.59;63.98;101652.81;5073368;28;46798;-62
2022/11/02 02:55:45;;;;;;;;;5.33;0.67;;;;;14.65;63.73;101654.59;5037954;28;45821;-66
2022/11/02 02:58:20;;;;;;;;;0.33;0.00;;;;;14.62;63.70;101669.53;5076702;27;45476;-64
2022/11/02 03:00:45;;;;;;;;;0.00;0.00;;;;;14.48;63.98;101644.03;5059035;28;45623;-61
2022/11/02 03:03:24;;;;;;;;;2.33;1.00;;;;;14.48;63.93;101649.28;5076620;28;45995;-62
2022/11/02 03:06:14;;;;;;;;;0.67;0.67;;;;;14.46;63.86;101657.19;5058982;28;45392;-61
2022/11/02 03:08:46;;;;;;;;;1.67;1.00;;;;;14.52;63.96;101666.84;5028779;28;45535;-63
2022/11/02 03:11:15;;;;;;;;;1.00;1.00;;;;;14.45;64.05;101662.44;5071585;27;45397;-61
2022/11/02 03:14:06;;;;;;;;;0.33;0.33;;;;;14.47;64.09;101672.13;5072394;28;45449;-62
2022/11/02 03:16:47;;;;;;;;;0.00;0.00;;;;;14.51;63.82;101675.66;5058949;28;45772;-61
2022/11/02 03:19:28;;;;;;;;;1.67;1.00;;;;;14.51;63.97;101680.91;5068717;28;45673;-61
2022/11/02 03:22:32;;;;;;;;;4.00;1.00;;;;;14.49;63.71;101678.28;5058948;28;45520;-61
2022/11/02 03:25:14;;;;;;;;;1.00;1.00;;;;;14.39;64.37;101672.13;5005548;28;47228;-61
2022/11/02 03:27:54;;;;;;;;;0.67;0.33;;;;;14.32;63.92;101665.06;5049009;28;45312;-61
2022/11/02 03:30:27;;;;;;;;;3.33;1.00;;;;;14.41;63.95;101685.31;5072762;28;45635;-60
2022/11/02 03:32:59;;;;;;;;;1.67;1.67;;;;;14.41;64.02;101680.03;5072859;28;45375;-63
2022/11/02 03:35:40;;;;;;;;;2.67;1.00;;;;;14.27;64.63;101666.84;5058702;28;47069;-62
2022/11/02 03:38:23;;;;;;;;;0.67;0.33;;;;;14.35;64.30;101695.81;5059436;28;45553;-62
2022/11/02 03:40:53;;;;;;;;;1.00;1.00;;;;;14.37;64.48;101699.34;5077093;28;45366;-61
2022/11/02 03:43:20;;;;;;;;;1.67;1.00;;;;;14.35;64.42;101695.81;5058775;28;45476;-61
2022/11/02 03:45:53;;;;;;;;;2.00;0.67;;;;;14.35;64.53;101694.06;5076310;27;45430;-61
2022/11/02 03:48:24;;;;;;;;;1.00;1.00;;;;;14.33;64.66;101702.84;5076522;27;45552;-61
2022/11/02 03:50:52;;;;;;;;;2.33;1.00;;;;;14.35;64.37;101709.00;5076999;27;45440;-60
2022/11/02 03:53:29;;;;;;;;;2.67;1.33;;;;;14.37;64.51;101720.44;5073568;28;45330;-60
2022/11/02 03:56:02;;;;;;;;;2.33;1.00;;;;;14.29;64.36;101711.66;5072012;28;46754;-63
2022/11/02 03:58:28;;;;;;;;;3.00;0.00;;;;;14.28;64.22;101716.00;5072450;28;45461;-61
2022/11/02 04:01:00;;;;;;;;;3.33;1.00;;;;;14.21;64.74;101719.50;5055294;28;45329;-62
2022/11/02 04:03:29;;;;;;;;;0.33;0.00;;;;;14.22;64.30;101729.19;5079500;27;45767;-60
2022/11/02 04:05:55;;;;;;;;;0.33;0.33;;;;;14.20;64.55;101730.94;5080096;28;46222;-61
2022/11/02 04:08:33;;;;;;;;;3.00;1.00;;;;;14.10;64.70;101730.03;5080000;28;45259;-60
2022/11/02 04:16:26;;;;;;;;;0.67;0.00;;;;;14.19;64.32;101748.50;5067962;28;45486;-62
2022/11/02 04:21:36;;;;;;;;;1.00;1.00;;;;;14.15;65.05;101744.09;5075531;28;45454;-60
2022/11/02 04:26:45;;;;;;;;;1.00;1.00;;;;;14.17;64.65;101749.38;5079491;28;45460;-60
2022/11/02 04:29:11;;;;;;;;;0.00;0.00;;;;;14.17;64.46;101758.16;5079479;28;45521;-61
2022/11/02 04:31:37;;;;;;;;;3.33;0.67;;;;;14.21;64.21;101774.84;5075669;27;45500;-61
2022/11/02 04:34:02;;;;;;;;;3.00;1.67;;;;;14.20;64.28;101758.16;5075247;27;45581;-61
2022/11/02 04:36:29;;;;;;;;;0.67;0.67;;;;;14.19;64.34;101759.03;5057050;28;47724;-60
2022/11/02 04:38:55;;;;;;;;;2.00;0.00;;;;;14.24;63.73;101769.59;5057046;28;45565;-60
2022/11/02 04:41:40;;;;;;;;;2.33;0.33;;;;;14.25;63.81;101773.97;5074841;28;45400;-61
2022/11/02 04:44:07;;;;;;;;;1.33;1.00;;;;;14.23;63.66;101783.63;5075557;28;45437;-60
2022/11/02 04:46:34;;;;;;;;;3.33;1.67;;;;;14.23;63.38;101786.25;5078990;28;45635;-60
2022/11/02 04:49:01;;;;;;;;;1.00;1.00;;;;;14.20;63.17;101776.59;5079302;28;45300;-61
2022/11/02 04:51:28;;;;;;;;;1.00;0.00;;;;;14.18;63.27;101775.72;5077262;27;45375;-62
2022/11/02 04:53:56;;;;;;;;;3.00;1.00;;;;;14.16;63.19;101774.81;5075400;28;45388;-63
2022/11/02 04:56:22;;;;;;;;;1.33;1.33;;;;;14.24;63.77;101798.59;5074870;28;45860;-60
2022/11/02 04:58:50;;;;;;;;;0.00;0.00;;;;;14.23;63.26;101802.06;5075197;28;45457;-61
2022/11/02 05:01:16;;;;;;;;;0.33;0.33;;;;;14.22;63.16;101802.97;5056607;28;45497;-61
2022/11/02 05:03:42;;;;;;;;;3.00;1.00;;;;;14.16;63.44;101795.91;5076701;27;45239;-62
2022/11/02 05:06:11;;;;;;;;;0.00;0.00;;;;;14.21;63.31;101804.72;5058119;28;47141;-63
2022/11/02 05:08:37;;;;;;;;;1.00;1.00;;;;;14.17;63.64;101802.94;5074559;28;45437;-62
2022/11/02 05:11:03;;;;;;;;;4.00;1.00;;;;;14.23;63.11;101817.00;5074697;27;45690;-60
2022/11/02 05:13:28;;;;;;;;;2.00;0.33;;;;;14.19;63.53;101817.00;5075109;28;45329;-62
2022/11/02 05:15:55;;;;;;;;;2.00;0.67;;;;;14.15;63.51;101809.09;5074452;28;45464;-61
2022/11/02 05:18:21;;;;;;;;;2.00;1.00;;;;;14.19;63.62;101821.41;5058264;28;45441;-62
2022/11/02 05:20:51;;;;;;;;;3.67;1.33;;;;;14.16;63.59;101829.28;5078593;28;45541;-60
2022/11/02 05:23:18;;;;;;;;;2.00;1.33;;;;;14.13;63.08;101829.25;5075625;28;45378;-61
2022/11/02 05:26:01;;;;;;;;;3.00;2.00;;;;;14.13;63.45;101831.91;5074278;28;46293;-60
2022/11/02 05:28:27;;;;;;;;;3.00;1.00;;;;;14.08;63.31;101831.00;5078796;28;45447;-62
2022/11/02 05:30:53;;;;;;;;;2.00;1.00;;;;;13.98;63.48;101823.06;5078556;27;45461;-61
2022/11/02 05:33:20;;;;;;;;;2.00;1.00;;;;;14.00;63.88;101837.13;5079043;28;45532;-61
2022/11/02 05:35:46;;;;;;;;;2.00;1.00;;;;;14.02;63.81;101844.13;5075001;27;45690;-60
2022/11/02 05:38:12;;;;;;;;;1.00;1.00;;;;;14.02;63.91;101854.66;5073874;28;45363;-61
2022/11/02 05:40:39;;;;;;;;;4.00;1.33;;;;;13.92;63.61;101840.56;5060285;28;45391;-60
2022/11/02 05:43:07;;;;;;;;;1.00;1.00;;;;;13.95;63.92;101844.13;5077269;28;45626;-61
2022/11/02 05:45:33;;;;;;;;;4.67;1.00;;;;;13.97;63.89;101857.28;5055522;28;47903;-61
2022/11/02 05:48:00;;;;;;;;;1.00;1.00;;;;;13.95;63.99;101859.00;5073994;28;45577;-63
2022/11/02 05:50:26;;;;;;;;;3.33;2.00;;;;;13.88;64.06;101855.50;5074422;28;45517;-62
2022/11/02 05:52:52;;;;;;;;;2.67;2.00;;;;;13.85;64.60;101855.44;5077247;27;45445;-62
2022/11/02 05:55:17;;;;;;;;;2.33;2.00;;;;;13.79;64.23;101848.41;5074033;27;45712;-60
2022/11/02 05:57:48;;;;;;;;;8.00;2.00;;;;;13.70;64.96;101839.56;5074411;28;45378;-60
2022/11/02 06:00:14;;;;;;;;;2.00;1.00;;;;;13.71;64.61;101851.84;5073452;28;45472;-63
2022/11/02 06:02:40;;;;;;;;;2.00;1.00;;;;;13.54;65.48;101843.81;5076588;28;45349;-61
2022/11/02 06:05:06;;;;;;;;;3.00;1.33;;;;;13.64;65.39;101852.66;5077541;28;45635;-61
2022/11/02 06:07:31;;;;;;;;;2.67;2.00;;;;;13.65;65.14;101849.19;5077850;28;45411;-60
2022/11/02 06:09:57;;;;;;;;;1.00;1.00;;;;;13.62;65.04;101852.69;5077857;27;45293;-60
2022/11/02 06:12:22;;;;;;;;;1.67;1.33;;;;;13.63;65.04;101857.06;5059682;28;45639;-61
2022/11/02 06:14:48;;;;;;;;;1.67;0.33;;;;;13.54;65.93;101844.69;5077802;28;45935;-66
2022/11/02 06:17:13;;;;;;;;;2.33;0.67;;;;;13.46;65.62;101841.16;5077747;28;45497;-62
2022/11/02 06:19:39;;;;;;;;;1.00;1.00;;;;;13.54;65.75;101854.34;5074510;28;45403;-62
2022/11/02 06:22:04;;;;;;;;;4.33;2.67;;;;;13.59;65.70;101860.53;5074243;28;45579;-65
2022/11/02 06:24:30;;;;;;;;;3.00;3.00;;;;;13.62;65.35;101864.94;5073301;27;45355;-62
2022/11/02 06:26:55;;;;;;;;;1.00;1.00;;;;;13.54;65.62;101852.59;5073188;28;45859;-66
2022/11/02 06:29:21;;;;;;;;;3.00;2.00;;;;;13.63;64.99;101870.22;5075880;28;45523;-61
2022/11/02 06:31:47;;;;;;;;;3.67;1.33;;;;;13.60;65.22;101862.31;5075093;28;45747;-62
2022/11/02 06:34:12;;;;;;;;;2.33;2.33;;;;;13.64;65.47;101865.81;5073074;28;45434;-61
2022/11/02 06:36:38;;;;;;;;;1.00;1.00;;;;;13.64;65.36;101863.19;5076927;27;45464;-62
2022/11/02 06:39:03;;;;;;;;;2.33;1.33;;;;;13.59;65.12;101857.91;5073250;28;45541;-66
2022/11/02 06:41:29;;;;;;;;;2.67;2.00;;;;;13.70;64.91;101874.66;5074968;28;45422;-60
2022/11/02 06:43:55;;;;;;;;;2.33;2.00;;;;;13.66;65.40;101870.22;5075103;27;45669;-62
2022/11/02 06:46:20;;;;;;;;;1.33;1.00;;;;;13.65;65.03;101867.59;5073044;28;45860;-61
2022/11/02 06:48:47;;;;;;;;;3.00;1.67;;;;;13.69;65.22;101874.63;5073298;28;45731;-62
2022/11/02 06:51:12;;;;;;;;;4.00;2.00;;;;;13.67;65.04;101890.44;5073410;28;45413;-61
2022/11/02 06:53:38;;;;;;;;;2.00;2.00;;;;;13.61;65.44;101881.63;5073104;28;45433;-63
2022/11/02 06:56:04;;;;;;;;;3.00;1.00;;;;;13.69;64.98;101900.97;5074837;28;45354;-62
2022/11/02 06:58:32;;;;;;;;;5.67;2.33;;;;;13.63;65.04;101886.00;5075036;27;45521;-62
2022/11/02 07:01:06;;;;;;;;;3.67;2.00;;;;;13.78;65.20;101908.94;5055610;28;45930;-62
2022/11/02 07:03:32;;;;;;;;;4.67;2.00;;;;;13.74;64.87;101902.78;5054346;28;46681;-61
2022/11/02 07:05:58;;;;;;;;;4.00;3.00;;;;;13.69;64.97;101899.25;5073155;28;45692;-63
2022/11/02 07:08:24;;;;;;;;;6.33;2.00;;;;;13.80;65.04;101909.84;5072732;28;45600;-66
2022/11/02 07:10:50;;;;;;;;;4.67;2.33;;;;;13.80;65.10;101907.19;5072783;28;45745;-61
2022/11/02 07:13:16;;;;;;;;;2.33;2.33;;;;;13.91;64.83;101912.56;5054317;28;45402;-61
2022/11/02 07:15:42;;;;;;;;;6.67;2.00;;;;;13.95;64.21;101914.31;5072591;28;45381;-62
2022/11/02 07:18:08;;;;;;;;;7.67;2.00;;;;;13.91;64.14;101888.84;5072633;27;45402;-61
2022/11/02 07:20:34;;;;;;;;;3.33;1.33;;;;;14.04;64.06;101917.03;5072682;28;45616;-62
2022/11/02 07:23:01;;;;;;;;;8.33;2.00;;;;;14.03;64.36;101917.03;5072593;28;45674;-60
2022/11/02 07:25:31;;;;;;;;;7.00;2.00;;;;;13.98;64.18;101920.50;5072321;28;45478;-61
2022/11/02 07:28:01;;;;;;;;;3.33;1.67;;;;;14.04;63.83;101922.28;5072530;28;45476;-62
2022/11/02 07:30:32;;;;;;;;;4.67;3.00;;;;;14.08;63.73;101933.75;5057563;28;45490;-61
2022/11/02 07:32:58;;;;;;;;;4.00;2.00;;;;;14.06;63.97;101936.34;5076212;28;45553;-62
2022/11/02 07:35:23;;;;;;;;;4.00;2.00;;;;;14.04;64.07;101926.69;5057208;28;45516;-63
2022/11/02 07:37:57;;;;;;;;;8.00;2.00;;;;;14.03;64.27;101936.34;5073829;28;45377;-62
2022/11/02 07:40:23;;;;;;;;;6.33;3.33;;;;;14.03;64.56;101928.44;5079019;27;45577;-62
2022/11/02 07:42:48;;;;;;;;;5.67;4.33;;;;;14.13;64.25;101927.63;5080256;27;46216;-63
2022/11/02 07:45:14;;;;;;;;;4.33;4.00;;;;;14.20;64.24;101929.41;5075712;28;45292;-61
2022/11/02 07:47:43;;;;;;;;;5.33;4.33;;;;;14.26;63.90;101918.06;5075500;27;45483;-60
2022/11/02 07:50:10;;;;;;;;;8.33;3.00;;;;;14.32;63.75;101931.25;5075542;27;45686;-62
2022/11/02 07:52:43;;;;;;;;;4.00;3.00;;;;;14.40;63.33;101926.91;5075515;27;45893;-61
2022/11/02 07:55:08;;;;;;;;;6.67;3.00;;;;;14.63;62.67;101928.81;5078385;28;45465;-62
2022/11/02 07:57:34;;;;;;;;;2.67;2.67;;;;;14.81;62.06;101944.69;5080031;27;45524;-63
2022/11/02 07:59:59;;;;;;;;;2.33;2.33;;;;;14.92;62.00;101950.00;5079998;28;45618;-65
2022/11/02 08:02:25;;;;;;;;;5.33;3.67;;;;;14.81;62.23;101947.34;5078441;28;45953;-62
